createdAt,value
2022-12-20T00:01:11.727Z,-0.26
2022-12-20T00:03:38.243Z,-0.21
2022-12-20T00:06:05.289Z,-0.19
2022-12-20T00:08:31.833Z,-0.24
2022-12-20T00:11:00.970Z,-0.20
2022-12-20T00:13:27.735Z,-0.22
2022-12-20T00:16:04.218Z,-0.25
2022-12-20T00:18:30.917Z,-0.24
2022-12-20T00:21:01.406Z,-0.22
2022-12-20T00:23:29.677Z,-0.23
2022-12-20T00:26:06.101Z,-0.20
2022-12-20T00:28:33.481Z,-0.23
2022-12-20T00:31:00.366Z,-0.23
2022-12-20T00:33:27.122Z,-0.23
2022-12-20T00:35:55.148Z,-0.27
2022-12-20T00:38:22.586Z,-0.28
2022-12-20T00:41:06.342Z,-0.28
2022-12-20T00:43:33.963Z,-0.29
2022-12-20T00:46:01.721Z,-0.28
2022-12-20T00:48:29.318Z,-0.30
2022-12-20T00:51:01.134Z,-0.28
2022-12-20T00:53:28.634Z,-0.29
2022-12-20T00:55:55.761Z,-0.27
2022-12-20T00:58:22.556Z,-0.22
2022-12-20T01:00:55.863Z,-0.20
2022-12-20T01:03:23.762Z,-0.24
2022-12-20T01:05:59.349Z,-0.22
2022-12-20T01:08:27.969Z,-0.16
2022-12-20T01:11:07.619Z,-0.13
2022-12-20T01:13:36.414Z,-0.16
2022-12-20T01:16:27.466Z,-0.16
2022-12-20T01:18:54.419Z,-0.13
2022-12-20T01:21:23.297Z,-0.13
2022-12-20T01:23:50.135Z,-0.12
2022-12-20T01:26:19.182Z,-0.11
2022-12-20T01:28:47.652Z,-0.11
2022-12-20T01:31:16.468Z,-0.12
2022-12-20T01:33:43.810Z,-0.10
2022-12-20T01:36:17.048Z,-0.09
2022-12-20T01:38:44.094Z,-0.09
2022-12-20T01:41:19.374Z,-0.09
2022-12-20T01:43:55.349Z,-0.12
2022-12-20T01:46:25.239Z,-0.06
2022-12-20T01:49:11.105Z,-0.05
2022-12-20T01:51:44.782Z,0.00
2022-12-20T01:54:17.213Z,0.02
2022-12-20T01:56:48.279Z,0.02
2022-12-20T01:59:15.022Z,0.05
2022-12-20T02:01:43.346Z,0.05
2022-12-20T02:04:11.653Z,0.01
2022-12-20T02:06:38.326Z,0.08
2022-12-20T02:09:08.340Z,0.12
2022-12-20T02:12:08.768Z,0.08
2022-12-20T02:15:02.414Z,0.12
2022-12-20T02:17:47.066Z,0.04
2022-12-20T02:20:34.085Z,0.07
2022-12-20T02:23:25.375Z,-0.01
2022-12-20T02:26:30.953Z,0.04
2022-12-20T02:29:29.339Z,0.05
2022-12-20T02:32:08.322Z,0.13
2022-12-20T02:34:37.573Z,0.14
2022-12-20T02:37:04.481Z,0.10
2022-12-20T02:39:33.673Z,0.17
2022-12-20T02:42:09.876Z,0.15
2022-12-20T02:45:00.275Z,0.15
2022-12-20T02:47:33.490Z,0.17
2022-12-20T02:50:01.272Z,0.13
2022-12-20T02:52:31.639Z,0.15
2022-12-20T02:55:00.116Z,0.09
2022-12-20T02:57:39.390Z,0.12
2022-12-20T03:00:15.849Z,0.16
2022-12-20T03:03:04.043Z,0.17
2022-12-20T03:05:33.261Z,0.08
2022-12-20T03:08:00.294Z,0.09
2022-12-20T03:10:27.057Z,0.19
2022-12-20T03:12:53.798Z,0.16
2022-12-20T03:15:20.587Z,0.12
2022-12-20T03:17:51.085Z,0.08
2022-12-20T03:20:17.690Z,0.12
2022-12-20T03:22:44.241Z,0.18
2022-12-20T03:25:11.919Z,0.16
2022-12-20T03:27:38.606Z,0.11
2022-12-20T03:30:06.004Z,0.17
2022-12-20T03:32:35.269Z,0.22
2022-12-20T03:35:02.008Z,0.16
2022-12-20T03:37:34.909Z,0.13
2022-12-20T03:40:05.393Z,0.17
2022-12-20T03:42:32.605Z,0.18
2022-12-20T03:44:59.205Z,0.15
2022-12-20T03:47:27.923Z,0.18
2022-12-20T03:49:55.137Z,0.15
2022-12-20T03:52:22.025Z,0.17
2022-12-20T03:54:49.192Z,0.15
2022-12-20T03:57:19.324Z,0.14
2022-12-20T03:59:48.350Z,0.20
2022-12-20T04:02:16.844Z,0.16
2022-12-20T04:04:43.592Z,0.20
2022-12-20T04:07:10.174Z,0.20
2022-12-20T04:09:39.003Z,0.19
2022-12-20T04:12:10.630Z,0.18
2022-12-20T04:14:38.772Z,0.25
2022-12-20T04:17:06.249Z,0.28
2022-12-20T04:19:33.715Z,0.26
2022-12-20T04:22:05.086Z,0.25
2022-12-20T04:24:43.851Z,0.23
2022-12-20T04:27:18.929Z,0.30
2022-12-20T04:29:45.865Z,0.29
2022-12-20T04:32:15.125Z,0.23
2022-12-20T04:34:41.956Z,0.26
2022-12-20T04:37:08.526Z,0.27
2022-12-20T04:39:44.339Z,0.25
2022-12-20T04:42:18.755Z,0.32
2022-12-20T04:44:45.394Z,0.24
2022-12-20T04:47:14.155Z,0.24
2022-12-20T04:49:40.667Z,0.25
2022-12-20T04:52:25.991Z,0.26
2022-12-20T04:54:52.482Z,0.27
2022-12-20T04:57:24.962Z,0.29
2022-12-20T04:59:51.464Z,0.21
2022-12-20T05:02:19.016Z,0.25
2022-12-20T05:04:50.270Z,0.23
2022-12-20T05:07:17.178Z,0.31
2022-12-20T05:09:49.910Z,0.23
2022-12-20T05:12:16.660Z,0.26
2022-12-20T05:14:44.540Z,0.27
2022-12-20T05:17:12.791Z,0.32
2022-12-20T05:19:39.331Z,0.23
2022-12-20T05:22:24.730Z,0.23
2022-12-20T05:25:24.456Z,0.25
2022-12-20T05:27:52.941Z,0.27
2022-12-20T05:30:22.054Z,0.27
2022-12-20T05:32:49.318Z,0.17
2022-12-20T05:35:15.790Z,0.29
2022-12-20T05:37:43.960Z,0.32
2022-12-20T05:40:16.198Z,0.35
2022-12-20T05:42:43.352Z,0.36
2022-12-20T05:45:11.151Z,0.39
2022-12-20T05:47:46.525Z,0.34
2022-12-20T05:50:18.525Z,0.39
2022-12-20T05:53:10.985Z,0.27
2022-12-20T05:55:49.408Z,0.31
2022-12-20T05:58:18.566Z,0.31
2022-12-20T06:01:07.143Z,0.35
2022-12-20T06:03:38.700Z,0.36
2022-12-20T06:06:13.996Z,0.36
2022-12-20T06:08:41.429Z,0.39
2022-12-20T06:11:10.837Z,0.35
2022-12-20T06:13:47.433Z,0.38
2022-12-20T06:16:14.092Z,0.36
2022-12-20T06:18:40.693Z,0.32
2022-12-20T06:21:07.879Z,0.37
2022-12-20T06:23:34.419Z,0.37
2022-12-20T06:26:09.378Z,0.46
2022-12-20T06:28:44.818Z,0.49
2022-12-20T06:31:11.846Z,0.45
2022-12-20T06:33:41.823Z,0.35
2022-12-20T06:36:08.448Z,0.38
2022-12-20T06:38:35.162Z,0.45
2022-12-20T06:41:01.665Z,0.42
2022-12-20T06:43:28.419Z,0.36
2022-12-20T06:45:55.134Z,0.47
2022-12-20T06:48:21.651Z,0.49
2022-12-20T06:50:55.605Z,0.52
2022-12-20T06:53:23.511Z,0.49
2022-12-20T06:55:51.573Z,0.44
2022-12-20T06:58:19.146Z,0.52
2022-12-20T07:00:48.083Z,0.50
2022-12-20T07:03:14.756Z,0.46
2022-12-20T07:05:41.357Z,0.44
2022-12-20T07:08:08.366Z,0.45
2022-12-20T07:10:36.168Z,0.43
2022-12-20T07:13:02.874Z,0.46
2022-12-20T07:15:29.348Z,0.52
2022-12-20T07:17:55.817Z,0.44
2022-12-20T07:20:22.344Z,0.47
2022-12-20T07:22:48.782Z,0.48
2022-12-20T07:25:15.438Z,0.50
2022-12-20T07:27:41.925Z,0.42
2022-12-20T07:30:09.033Z,0.43
2022-12-20T07:32:35.653Z,0.42
2022-12-20T07:35:02.172Z,0.52
2022-12-20T07:37:29.924Z,0.43
2022-12-20T07:39:56.520Z,0.50
2022-12-20T07:42:23.018Z,0.54
2022-12-20T07:44:50.415Z,0.50
2022-12-20T07:47:16.923Z,0.46
2022-12-20T07:49:43.441Z,0.57
2022-12-20T07:52:13.756Z,0.54
2022-12-20T07:54:53.729Z,0.63
2022-12-20T07:57:27.735Z,0.66
2022-12-20T07:59:59.105Z,0.68
2022-12-20T08:02:37.079Z,0.66
2022-12-20T08:05:06.954Z,0.72
2022-12-20T08:07:34.470Z,0.66
2022-12-20T08:10:01.188Z,0.69
2022-12-20T08:12:30.344Z,0.77
2022-12-20T08:14:58.367Z,0.66
2022-12-20T08:17:25.102Z,0.66
2022-12-20T08:19:52.084Z,0.71
2022-12-20T08:22:19.439Z,0.67
2022-12-20T08:24:46.234Z,0.57
2022-12-20T08:27:12.839Z,0.48
2022-12-20T08:29:39.353Z,0.61
2022-12-20T08:32:05.869Z,0.56
2022-12-20T08:34:32.858Z,0.54
2022-12-20T08:36:59.610Z,0.60
2022-12-20T08:39:26.194Z,0.71
2022-12-20T08:41:52.718Z,0.65
2022-12-20T08:44:19.217Z,0.67
2022-12-20T08:46:46.516Z,0.74
2022-12-20T08:49:13.129Z,0.77
2022-12-20T08:51:39.648Z,0.78
2022-12-20T08:54:06.129Z,0.66
2022-12-20T08:56:32.583Z,0.70
2022-12-20T08:58:59.038Z,0.71
2022-12-20T09:01:27.108Z,0.66
2022-12-20T09:03:53.841Z,0.78
2022-12-20T09:06:21.889Z,0.75
2022-12-20T09:08:48.957Z,0.70
2022-12-20T09:11:24.925Z,0.79
2022-12-20T09:13:54.603Z,0.72
2022-12-20T09:16:25.073Z,0.75
2022-12-20T09:18:57.757Z,0.71
2022-12-20T09:21:27.506Z,0.76
2022-12-20T09:23:55.343Z,0.81
2022-12-20T09:26:22.903Z,0.77
2022-12-20T09:28:50.297Z,0.92
2022-12-20T09:31:19.746Z,1.03
2022-12-20T09:33:46.300Z,1.14
2022-12-20T09:36:14.942Z,1.07
2022-12-20T09:38:41.462Z,1.11
2022-12-20T09:41:20.686Z,1.13
2022-12-20T09:43:49.811Z,1.01
2022-12-20T09:46:16.997Z,1.17
2022-12-20T09:48:44.572Z,1.02
2022-12-20T09:51:10.959Z,1.15
2022-12-20T09:54:06.936Z,1.13
2022-12-20T09:56:37.654Z,1.12
2022-12-20T09:59:12.628Z,1.12
2022-12-20T10:01:40.410Z,1.20
2022-12-20T10:04:23.197Z,1.17
2022-12-20T10:07:29.480Z,1.17
2022-12-20T10:10:14.270Z,1.16
2022-12-20T10:12:56.157Z,1.18
2022-12-20T10:15:28.125Z,1.14
2022-12-20T10:18:06.458Z,1.14
2022-12-20T10:20:40.115Z,1.13
2022-12-20T10:23:32.809Z,1.11
2022-12-20T10:25:59.959Z,1.10
2022-12-20T10:28:30.436Z,1.04
2022-12-20T10:31:08.440Z,1.00
2022-12-20T10:33:34.877Z,1.07
2022-12-20T10:36:26.274Z,1.11
2022-12-20T10:39:05.038Z,1.13
2022-12-20T10:41:52.145Z,1.16
2022-12-20T10:44:25.736Z,1.18
2022-12-20T10:47:01.628Z,1.08
2022-12-20T10:49:40.979Z,1.10
2022-12-20T10:52:07.508Z,1.04
2022-12-20T10:54:39.478Z,1.09
2022-12-20T10:57:21.838Z,1.07
2022-12-20T10:59:54.262Z,1.10
2022-12-20T11:02:40.526Z,1.10
2022-12-20T11:05:11.728Z,1.08
2022-12-20T11:10:46.112Z,1.22
2022-12-20T11:13:29.382Z,1.28
2022-12-20T11:15:57.412Z,1.40
2022-12-20T11:18:35.525Z,1.40
2022-12-20T11:21:27.897Z,1.47
2022-12-20T11:24:08.174Z,1.66
2022-12-20T11:26:58.960Z,1.58
2022-12-20T11:29:37.523Z,1.68
2022-12-20T11:32:21.813Z,1.55
2022-12-20T11:35:03.180Z,1.54
2022-12-20T11:37:38.224Z,1.45
2022-12-20T11:40:34.127Z,1.52
2022-12-20T11:43:26.556Z,1.49
2022-12-20T11:46:20.882Z,1.34
2022-12-20T11:48:56.249Z,1.34
2022-12-20T11:51:41.568Z,1.32
2022-12-20T11:54:17.245Z,1.53
2022-12-20T11:56:47.120Z,1.52
2022-12-20T11:59:42.836Z,1.50
2022-12-20T12:02:28.168Z,1.45
2022-12-20T12:05:15.511Z,1.48
2022-12-20T12:07:47.435Z,1.38
2022-12-20T12:10:16.721Z,1.44
2022-12-20T12:12:52.531Z,1.35
2022-12-20T12:15:31.773Z,1.44
2022-12-20T12:18:20.935Z,1.33
2022-12-20T12:21:09.528Z,1.25
2022-12-20T12:23:42.879Z,1.30
2022-12-20T12:26:21.162Z,1.31
2022-12-20T12:28:54.778Z,1.30
2022-12-20T12:31:42.640Z,1.25
2022-12-20T12:34:41.836Z,1.28
2022-12-20T12:37:42.396Z,1.37
2022-12-20T12:40:52.857Z,1.26
2022-12-20T12:43:26.479Z,1.36
2022-12-20T12:45:59.627Z,1.21
2022-12-20T12:48:53.948Z,1.25
2022-12-20T12:51:29.824Z,1.23
2022-12-20T12:54:04.025Z,1.32
2022-12-20T12:56:46.226Z,1.35
2022-12-20T12:59:13.300Z,1.43
2022-12-20T13:02:29.596Z,1.43
2022-12-20T13:04:58.564Z,1.44
2022-12-20T13:07:35.537Z,1.41
2022-12-20T13:10:20.241Z,1.37
2022-12-20T13:12:52.578Z,1.40
2022-12-20T13:15:21.818Z,1.29
2022-12-20T13:17:52.530Z,1.31
2022-12-20T13:20:22.467Z,1.27
2022-12-20T13:23:07.782Z,1.29
2022-12-20T13:25:41.989Z,1.38
2022-12-20T13:28:23.623Z,1.40
2022-12-20T13:31:02.402Z,1.24
2022-12-20T13:33:44.073Z,1.41
2022-12-20T13:36:10.495Z,1.32
2022-12-20T13:38:43.073Z,1.23
2022-12-20T13:41:20.105Z,1.31
2022-12-20T13:43:48.310Z,1.31
2022-12-20T13:46:23.262Z,1.27
2022-12-20T13:48:53.454Z,1.22
2022-12-20T13:51:22.420Z,1.27
2022-12-20T13:53:54.764Z,1.23
2022-12-20T13:56:27.238Z,1.22
2022-12-20T13:58:55.468Z,1.23
2022-12-20T14:01:24.667Z,1.23
2022-12-20T14:03:52.705Z,1.18
2022-12-20T14:06:26.509Z,1.09
2022-12-20T14:08:53.925Z,1.14
2022-12-20T14:11:23.700Z,1.13
2022-12-20T14:13:58.754Z,1.09
2022-12-20T14:16:27.518Z,1.09
2022-12-20T14:18:56.958Z,1.09
2022-12-20T14:21:25.032Z,1.05
2022-12-20T14:23:54.140Z,1.03
2022-12-20T14:26:35.288Z,0.99
2022-12-20T14:29:02.048Z,0.93
2022-12-20T14:31:32.569Z,0.99
2022-12-20T14:34:06.339Z,0.98
2022-12-20T14:36:33.817Z,0.95
2022-12-20T14:39:00.322Z,0.98
2022-12-20T14:41:30.898Z,0.97
2022-12-20T14:44:00.771Z,0.97
2022-12-20T14:46:30.713Z,0.93
2022-12-20T14:49:18.471Z,0.93
2022-12-20T14:51:46.597Z,0.95
2022-12-20T14:54:56.834Z,0.89
2022-12-20T14:57:23.648Z,0.97
2022-12-20T15:00:22.925Z,0.95
2022-12-20T15:03:01.700Z,0.95
2022-12-20T15:05:40.425Z,0.93
2022-12-20T15:08:28.254Z,0.96
2022-12-20T15:11:10.364Z,0.94
2022-12-20T15:13:38.540Z,1.00
2022-12-20T15:16:14.391Z,1.01
2022-12-20T15:18:41.057Z,1.01
2022-12-20T15:21:16.746Z,1.02
2022-12-20T15:23:47.951Z,1.06
2022-12-20T15:26:16.319Z,1.01
2022-12-20T15:28:42.842Z,1.02
2022-12-20T15:31:14.288Z,1.05
2022-12-20T15:33:42.304Z,1.02
2022-12-20T15:36:35.018Z,1.02
2022-12-20T15:39:16.654Z,1.01
2022-12-20T15:41:47.063Z,1.04
2022-12-20T15:44:17.466Z,1.05
2022-12-20T15:46:44.505Z,1.10
2022-12-20T15:49:19.452Z,1.05
2022-12-20T15:51:48.448Z,1.07
2022-12-20T15:54:32.735Z,1.06
2022-12-20T15:57:02.877Z,1.07
2022-12-20T15:59:58.800Z,1.05
2022-12-20T16:02:28.159Z,1.07
2022-12-20T16:04:55.295Z,1.02
2022-12-20T16:07:22.242Z,1.04
2022-12-20T16:09:48.665Z,1.08
2022-12-20T16:12:19.250Z,1.03
2022-12-20T16:14:45.727Z,1.04
2022-12-20T16:17:14.138Z,1.00
2022-12-20T16:19:41.377Z,0.98
2022-12-20T16:22:20.297Z,1.06
2022-12-20T16:24:46.869Z,1.09
2022-12-20T16:27:13.392Z,1.06
2022-12-20T16:29:41.376Z,1.08
2022-12-20T16:32:15.461Z,0.96
2022-12-20T16:34:41.973Z,1.04
2022-12-20T16:37:08.441Z,1.08
2022-12-20T16:39:34.886Z,1.04
2022-12-20T16:42:01.639Z,1.04
2022-12-20T16:44:28.198Z,1.05
2022-12-20T16:46:54.870Z,1.03
2022-12-20T16:49:21.411Z,1.11
2022-12-20T16:51:49.107Z,1.07
2022-12-20T16:54:20.660Z,1.03
2022-12-20T16:56:51.002Z,1.02
2022-12-20T16:59:20.167Z,1.06
2022-12-20T17:01:48.699Z,1.11
2022-12-20T17:04:17.571Z,1.09
2022-12-20T17:06:44.857Z,1.09
2022-12-20T17:09:11.487Z,1.08
2022-12-20T17:11:38.977Z,1.04
2022-12-20T17:14:12.093Z,1.07
2022-12-20T17:16:39.672Z,1.10
2022-12-20T17:19:06.319Z,1.06
2022-12-20T17:24:25.213Z,1.02
2022-12-20T17:26:51.655Z,1.07
2022-12-20T17:29:18.102Z,1.06
2022-12-20T17:31:46.366Z,1.03
2022-12-20T17:34:24.413Z,1.07
2022-12-20T17:36:52.887Z,1.10
2022-12-20T17:39:19.563Z,1.07
2022-12-20T17:41:47.074Z,1.11
2022-12-20T17:44:20.570Z,1.05
2022-12-20T17:46:47.378Z,1.06
2022-12-20T17:49:14.812Z,1.04
2022-12-20T17:51:41.409Z,1.02
2022-12-20T17:54:17.013Z,1.05
2022-12-20T17:56:43.428Z,1.05
2022-12-20T17:59:11.940Z,1.01
2022-12-20T18:01:38.857Z,1.03
2022-12-20T18:04:07.263Z,1.04
2022-12-20T18:06:37.639Z,1.03
2022-12-20T18:09:08.086Z,1.03
2022-12-20T18:11:34.768Z,1.07
2022-12-20T18:14:02.253Z,1.06
2022-12-20T18:16:31.110Z,1.01
2022-12-20T18:18:58.202Z,1.01
2022-12-20T18:21:26.339Z,0.94
2022-12-20T18:23:53.703Z,0.93
2022-12-20T18:26:29.191Z,1.00
2022-12-20T18:29:00.107Z,1.04
2022-12-20T18:31:29.537Z,1.04
2022-12-20T18:33:58.230Z,1.04
2022-12-20T18:36:36.038Z,1.05
2022-12-20T18:39:05.848Z,1.04
2022-12-20T18:41:32.378Z,1.03
2022-12-20T18:44:00.917Z,1.06
2022-12-20T18:46:28.252Z,1.05
2022-12-20T18:48:57.877Z,0.99
2022-12-20T18:51:28.306Z,1.05
2022-12-20T18:53:56.906Z,0.99
2022-12-20T18:56:25.796Z,0.96
2022-12-20T18:58:52.648Z,0.99
2022-12-20T19:01:24.300Z,1.03
2022-12-20T19:03:51.093Z,1.01
2022-12-20T19:06:18.620Z,1.03
2022-12-20T19:08:45.089Z,1.06
2022-12-20T19:11:14.091Z,1.02
2022-12-20T19:13:41.770Z,1.01
2022-12-20T19:16:12.924Z,1.05
2022-12-20T19:18:40.325Z,1.09
2022-12-20T19:21:19.145Z,1.01
2022-12-20T19:23:48.525Z,1.02
2022-12-20T19:26:16.439Z,0.95
2022-12-20T19:28:45.901Z,1.01
2022-12-20T19:31:22.059Z,1.02
2022-12-20T19:33:50.456Z,0.96
2022-12-20T19:36:19.819Z,0.97
2022-12-20T19:39:08.633Z,0.99
2022-12-20T19:41:35.712Z,1.03
2022-12-20T19:44:03.702Z,1.03
2022-12-20T19:46:30.646Z,0.98
2022-12-20T19:48:58.783Z,0.98
2022-12-20T19:51:26.737Z,0.97
2022-12-20T19:53:54.134Z,1.00
2022-12-20T19:56:27.887Z,1.01
2022-12-20T19:58:55.381Z,1.00
2022-12-20T20:01:25.866Z,1.03
2022-12-20T20:03:53.993Z,1.00
2022-12-20T20:06:21.889Z,0.99
2022-12-20T20:08:49.747Z,0.99
2022-12-20T20:11:17.628Z,1.01
2022-12-20T20:13:44.201Z,1.00
2022-12-20T20:16:13.318Z,1.03
2022-12-20T20:18:41.980Z,0.99
2022-12-20T20:21:12.523Z,0.99
2022-12-20T20:23:39.400Z,0.99
2022-12-20T20:26:10.905Z,1.06
2022-12-20T20:28:44.347Z,1.02
2022-12-20T20:31:13.777Z,1.06
2022-12-20T20:33:40.508Z,1.03
2022-12-20T20:36:07.353Z,1.00
2022-12-20T20:38:34.835Z,1.01
2022-12-20T20:41:02.312Z,1.03
2022-12-20T20:43:29.725Z,1.04
2022-12-20T20:45:56.781Z,0.97
2022-12-20T20:48:23.659Z,1.00
2022-12-20T20:50:50.108Z,1.04
2022-12-20T20:53:16.523Z,1.04
2022-12-20T20:55:42.941Z,1.03
2022-12-20T20:58:09.524Z,1.11
2022-12-20T21:00:38.609Z,1.08
2022-12-20T21:03:05.640Z,1.07
2022-12-20T21:06:14.151Z,1.10
2022-12-20T21:08:21.667Z,1.06
2022-12-20T21:10:49.387Z,1.07
2022-12-20T21:13:16.119Z,1.13
2022-12-20T21:15:46.435Z,1.10
2022-12-20T21:18:13.751Z,1.08
2022-12-20T21:20:40.228Z,1.06
2022-12-20T21:23:06.866Z,1.08
2022-12-20T21:25:33.339Z,1.06
2022-12-20T21:27:59.850Z,1.02
2022-12-20T21:30:26.451Z,1.04
2022-12-20T21:32:52.921Z,1.04
2022-12-20T21:35:19.374Z,1.05
2022-12-20T21:37:45.773Z,1.03
2022-12-20T21:40:12.619Z,1.01
2022-12-20T21:42:39.042Z,0.99
2022-12-20T21:45:06.017Z,1.02
2022-12-20T21:47:34.999Z,1.02
2022-12-20T21:50:01.410Z,0.99
2022-12-20T21:52:28.560Z,1.00
2022-12-20T21:54:55.002Z,1.01
2022-12-20T21:57:21.485Z,1.01
2022-12-20T21:59:47.907Z,1.03
2022-12-20T22:02:14.454Z,1.03
2022-12-20T22:04:40.950Z,1.02
2022-12-20T22:07:07.421Z,1.04
2022-12-20T22:09:33.821Z,1.02
2022-12-20T22:12:00.260Z,1.05
2022-12-20T22:14:26.682Z,1.04
2022-12-20T22:16:54.696Z,0.97
2022-12-20T22:19:21.382Z,1.04
2022-12-20T22:21:53.720Z,1.09
2022-12-20T22:24:24.068Z,1.06
2022-12-20T22:26:50.503Z,1.05
2022-12-20T22:29:16.957Z,1.01
2022-12-20T22:31:43.427Z,1.00
2022-12-20T22:34:10.230Z,0.96
2022-12-20T22:36:37.135Z,0.99
2022-12-20T22:39:03.819Z,1.03
2022-12-20T22:41:34.462Z,1.01
2022-12-20T22:44:01.644Z,1.01
2022-12-20T22:46:31.461Z,0.99
2022-12-20T22:48:58.802Z,1.00
2022-12-20T22:51:27.232Z,0.98
2022-12-20T22:53:57.156Z,0.96
2022-12-20T22:56:23.752Z,0.95
2022-12-20T22:58:50.415Z,0.97
2022-12-20T23:01:19.409Z,0.97
2022-12-20T23:03:46.275Z,0.96
2022-12-20T23:06:16.012Z,0.96
2022-12-20T23:08:43.304Z,0.96
2022-12-20T23:11:35.510Z,0.96
2022-12-20T23:14:21.828Z,1.00
2022-12-20T23:16:48.326Z,0.97
2022-12-20T23:19:14.813Z,0.97
2022-12-20T23:21:59.963Z,0.95
2022-12-20T23:24:26.395Z,0.96
2022-12-20T23:26:52.854Z,0.95
2022-12-20T23:29:19.291Z,0.97
2022-12-20T23:31:45.776Z,0.95
2022-12-20T23:34:12.205Z,0.97
2022-12-20T23:36:38.946Z,1.02
2022-12-20T23:39:05.771Z,1.03
2022-12-20T23:41:32.332Z,0.99
2022-12-20T23:43:59.082Z,1.05
2022-12-20T23:46:25.759Z,1.00
2022-12-20T23:48:53.081Z,1.00
2022-12-20T23:51:21.176Z,0.97
2022-12-20T23:53:47.871Z,0.98
2022-12-20T23:56:17.528Z,0.99
2022-12-20T23:58:45.973Z,1.04
